createdAt,value
2018-09-15T00:02:28.206Z,18.03
2018-09-15T00:04:57.100Z,17.97
2018-09-15T00:07:26.096Z,17.93
2018-09-15T00:09:55.003Z,17.84
2018-09-15T00:12:23.925Z,17.75
2018-09-15T00:14:52.824Z,17.69
2018-09-15T00:17:21.860Z,17.63
2018-09-15T00:19:50.856Z,17.64
2018-09-15T00:22:19.850Z,17.57
2018-09-15T00:24:48.835Z,17.56
2018-09-15T00:27:18.149Z,17.54
2018-09-15T00:29:47.341Z,17.51
2018-09-15T00:32:16.241Z,17.60
2018-09-15T00:34:45.172Z,17.58
2018-09-15T00:37:14.080Z,17.56
2018-09-15T00:39:43.025Z,17.52
2018-09-15T00:42:11.939Z,17.44
2018-09-15T00:44:40.949Z,17.45
2018-09-15T00:47:09.819Z,17.48
2018-09-15T00:49:38.792Z,17.58
2018-09-15T00:52:07.723Z,17.56
2018-09-15T00:54:36.602Z,17.54
2018-09-15T00:57:05.667Z,17.49
2018-09-15T00:59:34.547Z,17.43
2018-09-15T01:02:03.465Z,17.40
2018-09-15T01:04:32.397Z,17.33
2018-09-15T01:07:01.376Z,17.28
2018-09-15T01:09:30.283Z,17.21
2018-09-15T01:11:59.283Z,17.20
2018-09-15T01:14:28.266Z,17.19
2018-09-15T01:16:57.104Z,17.18
2018-09-15T01:19:26.320Z,17.16
2018-09-15T01:21:55.231Z,17.16
2018-09-15T01:24:24.244Z,17.14
2018-09-15T01:26:53.354Z,17.16
2018-09-15T01:29:22.254Z,17.15
2018-09-15T01:31:51.159Z,17.16
2018-09-15T01:34:20.157Z,17.07
2018-09-15T01:36:49.294Z,17.07
2018-09-15T01:39:18.186Z,17.07
2018-09-15T01:41:47.089Z,17.12
2018-09-15T01:44:15.991Z,17.11
2018-09-15T01:46:44.930Z,17.17
2018-09-15T01:49:13.827Z,17.14
2018-09-15T01:51:42.775Z,17.14
2018-09-15T01:54:11.663Z,17.13
2018-09-15T01:56:40.619Z,17.13
2018-09-15T01:59:09.620Z,17.04
2018-09-15T02:01:38.527Z,16.98
2018-09-15T02:04:08.049Z,17.00
2018-09-15T02:06:37.081Z,17.05
2018-09-15T02:09:10.027Z,17.09
2018-09-15T02:11:38.932Z,17.08
2018-09-15T02:14:07.887Z,17.15
2018-09-15T02:16:36.831Z,17.11
2018-09-15T02:19:05.775Z,17.06
2018-09-15T02:21:34.700Z,16.97
2018-09-15T02:24:03.671Z,16.95
2018-09-15T02:26:32.680Z,16.91
2018-09-15T02:29:01.600Z,16.86
2018-09-15T02:31:30.533Z,16.73
2018-09-15T02:33:59.423Z,16.65
2018-09-15T02:36:28.433Z,16.65
2018-09-15T02:38:57.353Z,16.61
2018-09-15T02:41:26.286Z,16.60
2018-09-15T02:43:55.237Z,16.62
2018-09-15T02:46:24.211Z,16.58
2018-09-15T02:48:53.126Z,16.54
2018-09-15T02:51:22.012Z,16.47
2018-09-15T02:53:50.928Z,16.48
2018-09-15T02:56:19.815Z,16.51
2018-09-15T02:58:48.796Z,16.45
2018-09-15T03:01:17.704Z,16.42
2018-09-15T03:03:46.617Z,16.41
2018-09-15T03:06:15.601Z,16.48
2018-09-15T03:08:44.588Z,16.51
2018-09-15T03:11:13.562Z,16.50
2018-09-15T03:13:42.572Z,16.52
2018-09-15T03:16:11.481Z,16.57
2018-09-15T03:18:40.374Z,16.57
2018-09-15T03:21:09.283Z,16.62
2018-09-15T03:23:38.184Z,16.62
2018-09-15T03:26:07.116Z,16.56
2018-09-15T03:28:36.004Z,16.50
2018-09-15T03:31:05.017Z,16.47
2018-09-15T03:33:33.915Z,16.47
2018-09-15T03:36:02.812Z,16.51
2018-09-15T03:38:31.731Z,16.59
2018-09-15T03:41:00.666Z,16.54
2018-09-15T03:43:29.575Z,16.55
2018-09-15T03:45:58.456Z,16.52
2018-09-15T03:48:27.346Z,16.49
2018-09-15T03:50:56.240Z,16.43
2018-09-15T03:53:25.200Z,16.35
2018-09-15T03:55:54.111Z,16.34
2018-09-15T03:58:23.120Z,16.33
2018-09-15T04:00:53.101Z,16.40
2018-09-15T04:03:23.004Z,16.37
2018-09-15T04:05:51.938Z,16.46
2018-09-15T04:08:21.312Z,16.43
2018-09-15T04:10:50.486Z,16.48
2018-09-15T04:13:19.368Z,16.44
2018-09-15T04:15:48.340Z,16.43
2018-09-15T04:18:17.753Z,16.35
2018-09-15T04:20:48.354Z,16.33
2018-09-15T04:23:17.558Z,16.33
2018-09-15T04:25:46.710Z,16.37
2018-09-15T04:28:15.670Z,16.40
2018-09-15T04:30:44.535Z,16.47
2018-09-15T04:33:13.454Z,16.46
2018-09-15T04:35:42.369Z,16.55
2018-09-15T04:38:11.332Z,16.62
2018-09-15T04:40:40.271Z,16.64
2018-09-15T04:43:09.165Z,16.70
2018-09-15T04:45:38.077Z,16.70
2018-09-15T04:48:06.987Z,16.75
2018-09-15T04:50:35.903Z,16.75
2018-09-15T04:53:04.800Z,16.74
2018-09-15T04:55:33.751Z,16.81
2018-09-15T04:58:02.638Z,16.88
2018-09-15T05:00:31.592Z,17.00
2018-09-15T05:03:00.524Z,17.16
2018-09-15T05:05:29.443Z,17.27
2018-09-15T05:07:58.411Z,17.37
2018-09-15T05:10:27.459Z,17.49
2018-09-15T05:12:56.411Z,17.60
2018-09-15T05:15:25.309Z,17.69
2018-09-15T05:17:54.263Z,17.72
2018-09-15T05:20:23.154Z,17.88
2018-09-15T05:22:52.047Z,17.45
2018-09-15T05:25:20.948Z,17.47
2018-09-15T05:27:49.830Z,17.61
2018-09-15T05:30:18.739Z,17.83
2018-09-15T05:32:47.635Z,18.05
2018-09-15T05:35:16.608Z,18.15
2018-09-15T05:37:45.499Z,18.03
2018-09-15T05:40:14.388Z,18.11
2018-09-15T05:42:43.308Z,18.29
2018-09-15T05:45:12.188Z,18.34
2018-09-15T05:47:41.079Z,18.51
2018-09-15T05:50:09.983Z,18.61
2018-09-15T05:52:38.988Z,18.70
2018-09-15T05:55:08.234Z,18.76
2018-09-15T05:57:37.187Z,18.85
2018-09-15T06:00:06.436Z,18.61
2018-09-15T06:02:35.312Z,18.88
2018-09-15T06:05:04.254Z,19.03
2018-09-15T06:07:33.196Z,19.03
2018-09-15T06:10:02.161Z,19.09
2018-09-15T06:12:31.082Z,19.10
2018-09-15T06:15:00.088Z,19.17
2018-09-15T06:17:29.060Z,19.28
2018-09-15T06:19:58.001Z,19.38
2018-09-15T06:22:27.214Z,19.46
2018-09-15T06:24:56.142Z,19.54
2018-09-15T06:27:25.042Z,19.62
2018-09-15T06:29:53.981Z,19.69
2018-09-15T06:32:22.897Z,19.64
2018-09-15T06:34:51.842Z,19.78
2018-09-15T06:37:20.844Z,19.83
2018-09-15T06:39:49.777Z,19.98
2018-09-15T06:42:18.714Z,20.13
2018-09-15T06:44:47.746Z,20.08
2018-09-15T06:47:16.670Z,20.26
2018-09-15T06:49:45.612Z,20.28
2018-09-15T06:52:14.501Z,20.36
2018-09-15T06:54:43.455Z,20.26
2018-09-15T06:57:12.427Z,20.34
2018-09-15T06:59:41.430Z,20.41
2018-09-15T07:02:10.335Z,20.59
2018-09-15T07:04:39.238Z,20.76
2018-09-15T07:07:08.297Z,20.65
2018-09-15T07:09:37.171Z,20.12
2018-09-15T07:12:06.076Z,20.39
2018-09-15T07:14:34.964Z,20.56
2018-09-15T07:17:03.897Z,20.60
2018-09-15T07:19:32.813Z,20.56
2018-09-15T07:22:01.792Z,20.61
2018-09-15T07:24:30.810Z,20.61
2018-09-15T07:26:59.731Z,20.76
2018-09-15T07:29:28.773Z,20.86
2018-09-15T07:31:57.737Z,20.75
2018-09-15T07:34:26.668Z,20.85
2018-09-15T07:36:55.561Z,20.80
2018-09-15T07:39:24.576Z,20.89
2018-09-15T07:41:53.497Z,20.97
2018-09-15T07:44:22.723Z,21.11
2018-09-15T07:46:51.650Z,21.16
2018-09-15T07:49:20.584Z,21.25
2018-09-15T07:51:49.560Z,21.32
2018-09-15T07:54:18.459Z,21.26
2018-09-15T07:56:47.379Z,21.35
2018-09-15T07:59:16.371Z,21.40
2018-09-15T08:01:45.344Z,21.51
2018-09-15T08:04:14.326Z,21.58
2018-09-15T08:06:43.203Z,21.63
2018-09-15T08:09:12.112Z,21.67
2018-09-15T08:11:41.012Z,21.78
2018-09-15T08:14:09.935Z,21.84
2018-09-15T08:16:38.856Z,21.87
2018-09-15T08:19:07.808Z,21.93
2018-09-15T08:21:36.742Z,22.09
2018-09-15T08:24:05.677Z,21.88
2018-09-15T08:26:34.675Z,22.09
2018-09-15T08:29:03.524Z,22.17
2018-09-15T08:31:32.452Z,22.16
2018-09-15T08:34:01.373Z,22.21
2018-09-15T08:36:30.291Z,22.27
2018-09-15T08:38:59.190Z,22.42
2018-09-15T08:41:28.165Z,22.46
2018-09-15T08:43:57.049Z,22.56
2018-09-15T08:46:25.956Z,22.58
2018-09-15T08:48:54.894Z,22.76
2018-09-15T08:51:23.899Z,22.79
2018-09-15T08:53:52.796Z,22.81
2018-09-15T08:56:21.695Z,22.82
2018-09-15T08:58:50.612Z,22.87
2018-09-15T09:01:19.509Z,22.82
2018-09-15T09:03:48.831Z,22.92
2018-09-15T09:06:17.760Z,23.02
2018-09-15T09:08:46.695Z,23.03
2018-09-15T09:11:15.707Z,23.08
2018-09-15T09:13:44.660Z,23.12
2018-09-15T09:16:13.591Z,23.15
2018-09-15T09:18:42.508Z,23.21
2018-09-15T09:21:11.419Z,23.13
2018-09-15T09:23:40.304Z,23.25
2018-09-15T09:26:09.324Z,23.23
2018-09-15T09:28:38.267Z,23.21
2018-09-15T09:31:07.214Z,23.26
2018-09-15T09:33:36.170Z,23.34
2018-09-15T09:36:05.119Z,23.42
2018-09-15T09:38:34.045Z,23.48
2018-09-15T09:41:02.975Z,23.50
2018-09-15T09:43:31.887Z,23.56
2018-09-15T09:46:00.792Z,23.53
2018-09-15T09:48:29.789Z,23.63
2018-09-15T09:50:58.804Z,23.73
2018-09-15T09:53:28.247Z,23.72
2018-09-15T09:55:57.170Z,23.76
2018-09-15T09:58:26.140Z,23.84
2018-09-15T10:01:03.944Z,23.89
2018-09-15T10:03:32.872Z,23.87
2018-09-15T10:06:01.798Z,24.00
2018-09-15T10:08:30.728Z,23.98
2018-09-15T10:10:59.677Z,23.93
2018-09-15T10:13:28.594Z,23.99
2018-09-15T10:15:57.556Z,24.09
2018-09-15T10:18:26.463Z,24.11
2018-09-15T10:20:55.368Z,24.13
2018-09-15T10:23:24.304Z,24.10
2018-09-15T10:25:53.199Z,24.10
2018-09-15T10:28:22.119Z,24.30
2018-09-15T10:30:51.179Z,24.28
2018-09-15T10:33:20.223Z,24.40
2018-09-15T10:35:49.331Z,24.43
2018-09-15T10:38:18.255Z,24.43
2018-09-15T10:40:47.181Z,24.42
2018-09-15T10:43:16.171Z,24.44
2018-09-15T10:45:45.148Z,24.42
2018-09-15T10:48:14.076Z,24.53
2018-09-15T10:50:43.012Z,24.57
2018-09-15T10:53:11.921Z,24.56
2018-09-15T10:55:40.887Z,24.68
2018-09-15T10:58:09.792Z,24.62
2018-09-15T11:00:38.711Z,24.78
2018-09-15T11:03:07.667Z,24.77
2018-09-15T11:05:36.551Z,24.78
2018-09-15T11:08:05.528Z,24.80
2018-09-15T11:10:34.514Z,25.01
2018-09-15T11:13:03.571Z,25.03
2018-09-15T11:15:32.520Z,25.11
2018-09-15T11:18:01.660Z,25.23
2018-09-15T11:20:30.577Z,25.29
2018-09-15T11:22:59.483Z,25.34
2018-09-15T11:25:28.416Z,25.27
2018-09-15T11:27:57.383Z,25.28
2018-09-15T11:30:26.300Z,25.31
2018-09-15T11:32:55.232Z,25.37
2018-09-15T11:35:24.193Z,25.41
2018-09-15T11:37:53.067Z,25.31
2018-09-15T11:40:21.955Z,25.26
2018-09-15T11:42:50.890Z,25.23
2018-09-15T11:45:19.771Z,25.21
2018-09-15T11:47:48.729Z,25.17
2018-09-15T11:50:17.663Z,25.29
2018-09-15T11:52:46.972Z,25.42
2018-09-15T11:55:16.216Z,25.48
2018-09-15T11:57:45.167Z,25.41
2018-09-15T12:00:15.149Z,25.42
2018-09-15T12:02:44.099Z,25.41
2018-09-15T12:05:12.991Z,25.38
2018-09-15T12:07:41.882Z,25.42
2018-09-15T12:10:10.926Z,25.43
2018-09-15T12:12:39.823Z,25.51
2018-09-15T12:15:08.804Z,25.50
2018-09-15T12:17:37.722Z,25.54
2018-09-15T12:20:06.868Z,25.53
2018-09-15T12:22:35.999Z,25.57
2018-09-15T12:25:04.940Z,25.61
2018-09-15T12:27:33.844Z,25.49
2018-09-15T12:30:02.785Z,25.51
2018-09-15T12:32:31.704Z,25.54
2018-09-15T12:35:00.620Z,25.55
2018-09-15T12:37:29.573Z,25.52
2018-09-15T12:39:58.476Z,25.49
2018-09-15T12:42:27.363Z,25.48
2018-09-15T12:44:56.390Z,25.50
2018-09-15T12:47:25.287Z,25.45
2018-09-15T12:49:54.208Z,25.48
2018-09-15T12:52:23.185Z,25.50
2018-09-15T12:54:52.067Z,25.59
2018-09-15T12:57:20.963Z,25.57
2018-09-15T12:59:50.176Z,25.57
2018-09-15T13:02:19.076Z,25.80
2018-09-15T13:04:47.968Z,25.86
2018-09-15T13:07:16.888Z,25.85
2018-09-15T13:09:46.051Z,25.90
2018-09-15T13:12:15.349Z,25.97
2018-09-15T13:14:44.344Z,26.04
2018-09-15T13:17:13.346Z,25.85
2018-09-15T13:19:42.229Z,25.97
2018-09-15T13:22:11.250Z,26.01
2018-09-15T13:24:40.391Z,26.09
2018-09-15T13:27:09.299Z,26.15
2018-09-15T13:29:38.404Z,25.98
2018-09-15T13:32:07.551Z,25.96
2018-09-15T13:34:36.811Z,25.88
2018-09-15T13:37:05.964Z,25.84
2018-09-15T13:39:34.901Z,25.78
2018-09-15T13:42:03.906Z,25.83
2018-09-15T13:44:32.865Z,25.71
2018-09-15T13:47:02.167Z,25.58
2018-09-15T13:49:31.468Z,25.51
2018-09-15T13:52:00.662Z,25.47
2018-09-15T13:54:29.984Z,25.59
2018-09-15T13:56:59.219Z,25.60
2018-09-15T13:59:28.378Z,25.68
2018-09-15T14:01:57.712Z,25.64
2018-09-15T14:04:26.609Z,25.62
2018-09-15T14:06:55.578Z,25.59
2018-09-15T14:09:25.707Z,25.51
2018-09-15T14:11:54.768Z,25.54
2018-09-15T14:14:24.073Z,25.54
2018-09-15T14:16:53.417Z,25.57
2018-09-15T14:19:22.596Z,25.48
2018-09-15T14:21:51.681Z,25.39
2018-09-15T14:24:20.920Z,25.30
2018-09-15T14:26:50.183Z,25.26
2018-09-15T14:29:19.158Z,25.23
2018-09-15T14:31:48.072Z,25.22
2018-09-15T14:34:16.992Z,25.25
2018-09-15T14:36:45.908Z,25.23
2018-09-15T14:39:14.810Z,25.20
2018-09-15T14:41:43.729Z,25.26
2018-09-15T14:44:12.614Z,25.28
2018-09-15T14:46:41.565Z,25.28
2018-09-15T14:49:10.463Z,25.29
2018-09-15T14:51:39.419Z,25.22
2018-09-15T14:54:08.332Z,25.29
2018-09-15T14:56:37.243Z,25.23
2018-09-15T14:59:06.260Z,25.17
2018-09-15T15:01:35.168Z,25.21
2018-09-15T15:04:04.086Z,25.28
2018-09-15T15:06:32.981Z,25.20
2018-09-15T15:09:01.892Z,25.25
2018-09-15T15:11:30.814Z,25.20
2018-09-15T15:13:59.863Z,25.17
2018-09-15T15:16:28.748Z,25.26
2018-09-15T15:18:57.653Z,25.12
2018-09-15T15:21:26.560Z,25.12
2018-09-15T15:23:55.440Z,25.13
2018-09-15T15:26:24.403Z,25.13
2018-09-15T15:28:53.537Z,25.12
2018-09-15T15:31:22.703Z,25.09
2018-09-15T15:33:51.574Z,25.08
2018-09-15T15:36:20.572Z,25.10
2018-09-15T15:38:49.488Z,25.10
2018-09-15T15:41:18.403Z,24.92
2018-09-15T15:43:47.341Z,24.84
2018-09-15T15:46:16.215Z,24.64
2018-09-15T15:48:45.095Z,24.62
2018-09-15T15:51:13.960Z,24.41
2018-09-15T15:53:42.859Z,24.51
2018-09-15T15:56:11.824Z,24.54
2018-09-15T15:58:40.975Z,24.56
2018-09-15T16:01:10.678Z,24.49
2018-09-15T16:03:39.563Z,24.62
2018-09-15T16:06:08.486Z,24.47
2018-09-15T16:08:37.371Z,24.43
2018-09-15T16:11:06.450Z,24.41
2018-09-15T16:13:35.825Z,24.41
2018-09-15T16:16:05.132Z,24.36
2018-09-15T16:18:34.288Z,24.36
2018-09-15T16:21:03.642Z,24.40
2018-09-15T16:23:32.635Z,24.09
2018-09-15T16:26:01.564Z,23.84
2018-09-15T16:28:30.639Z,23.70
2018-09-15T16:30:59.556Z,23.65
2018-09-15T16:33:28.460Z,22.99
2018-09-15T16:35:57.409Z,22.93
2018-09-15T16:38:26.469Z,22.58
2018-09-15T16:40:55.430Z,22.64
2018-09-15T16:43:39.788Z,22.79
2018-09-15T16:46:08.746Z,22.89
2018-09-15T16:48:37.807Z,23.07
2018-09-15T16:51:06.843Z,22.99
2018-09-15T16:53:35.897Z,23.20
2018-09-15T16:56:04.832Z,23.19
2018-09-15T16:58:33.836Z,23.28
2018-09-15T17:01:02.828Z,23.27
2018-09-15T17:03:32.114Z,23.30
2018-09-15T17:06:01.170Z,23.23
2018-09-15T17:08:30.380Z,23.29
2018-09-15T17:10:59.387Z,23.36
2018-09-15T17:13:28.304Z,23.42
2018-09-15T17:15:57.221Z,23.46
2018-09-15T17:18:26.108Z,23.49
2018-09-15T17:20:54.995Z,23.58
2018-09-15T17:23:24.272Z,23.58
2018-09-15T17:25:53.193Z,23.59
2018-09-15T17:28:22.218Z,23.54
2018-09-15T17:30:51.239Z,23.52
2018-09-15T17:33:20.239Z,23.46
2018-09-15T17:35:49.162Z,23.36
2018-09-15T17:38:18.143Z,23.26
2018-09-15T17:40:47.091Z,23.17
2018-09-15T17:43:16.513Z,23.14
2018-09-15T17:45:45.513Z,23.11
2018-09-15T17:48:14.439Z,23.05
2018-09-15T17:50:45.343Z,22.99
2018-09-15T17:53:14.292Z,23.02
2018-09-15T17:55:43.272Z,23.16
2018-09-15T17:58:12.159Z,23.08
2018-09-15T18:00:41.191Z,22.89
2018-09-15T18:03:10.240Z,22.76
2018-09-15T18:05:39.135Z,22.38
2018-09-15T18:08:08.091Z,22.44
2018-09-15T18:10:37.032Z,21.96
2018-09-15T18:13:05.983Z,21.95
2018-09-15T18:15:34.903Z,21.93
2018-09-15T18:18:03.884Z,22.07
2018-09-15T18:20:32.822Z,22.18
2018-09-15T18:23:01.739Z,22.33
2018-09-15T18:25:30.724Z,22.57
2018-09-15T18:28:00.124Z,22.68
2018-09-15T18:30:29.008Z,22.62
2018-09-15T18:32:57.906Z,22.77
2018-09-15T18:35:26.828Z,22.68
2018-09-15T18:37:55.722Z,22.96
2018-09-15T18:40:24.712Z,22.71
2018-09-15T18:42:53.868Z,22.57
2018-09-15T18:45:22.945Z,22.86
2018-09-15T18:47:51.841Z,22.92
2018-09-15T18:50:20.804Z,23.04
2018-09-15T18:52:49.713Z,23.07
2018-09-15T18:55:18.652Z,22.93
2018-09-15T18:57:47.624Z,22.58
2018-09-15T19:00:16.721Z,22.62
2018-09-15T19:02:45.629Z,22.61
2018-09-15T19:05:14.531Z,22.70
2018-09-15T19:07:43.614Z,22.88
2018-09-15T19:10:12.532Z,22.97
2018-09-15T19:12:41.420Z,22.99
2018-09-15T19:15:10.458Z,23.08
2018-09-15T19:17:39.360Z,23.16
2018-09-15T19:20:08.315Z,23.07
2018-09-15T19:22:37.224Z,23.07
2018-09-15T19:25:07.992Z,23.12
2018-09-15T19:27:36.906Z,23.16
2018-09-15T19:30:06.505Z,23.22
2018-09-15T19:32:36.454Z,23.24
2018-09-15T19:35:05.440Z,23.20
2018-09-15T19:37:34.448Z,23.24
2018-09-15T19:40:03.352Z,22.85
2018-09-15T19:42:32.314Z,22.82
2018-09-15T19:45:01.278Z,22.94
2018-09-15T19:47:30.172Z,23.00
2018-09-15T19:49:59.103Z,22.73
2018-09-15T19:52:28.159Z,22.64
2018-09-15T19:54:57.009Z,22.78
2018-09-15T19:57:25.962Z,22.75
2018-09-15T19:59:54.922Z,22.83
2018-09-15T20:02:23.816Z,22.61
2018-09-15T20:04:52.767Z,22.66
2018-09-15T20:07:21.692Z,22.82
2018-09-15T20:09:50.704Z,22.92
2018-09-15T20:12:19.612Z,22.91
2018-09-15T20:14:48.573Z,22.95
2018-09-15T20:17:16.063Z,22.66
2018-09-15T20:19:43.517Z,22.29
2018-09-15T20:22:12.462Z,22.12
2018-09-15T20:24:41.364Z,22.41
2018-09-15T20:27:10.287Z,22.59
2018-09-15T20:29:39.172Z,22.74
2018-09-15T20:32:08.219Z,22.33
2018-09-15T20:34:37.825Z,22.50
2018-09-15T20:37:07.165Z,22.25
2018-09-15T20:39:36.088Z,22.40
2018-09-15T20:42:04.979Z,22.58
2018-09-15T20:44:33.887Z,22.62
2018-09-15T20:47:02.758Z,22.72
2018-09-15T20:49:31.675Z,22.73
2018-09-15T20:52:00.575Z,22.79
2018-09-15T20:54:29.466Z,22.78
2018-09-15T20:56:58.350Z,22.74
2018-09-15T20:59:27.310Z,22.78
2018-09-15T21:01:56.272Z,22.70
2018-09-15T21:04:25.152Z,22.62
2018-09-15T21:06:54.048Z,22.76
2018-09-15T21:09:23.012Z,22.81
2018-09-15T21:11:51.991Z,22.32
2018-09-15T21:14:20.974Z,22.40
2018-09-15T21:16:49.938Z,22.53
2018-09-15T21:19:18.896Z,22.61
2018-09-15T21:21:47.778Z,22.68
2018-09-15T21:24:16.694Z,22.64
2018-09-15T21:26:45.642Z,22.65
2018-09-15T21:29:14.549Z,22.67
2018-09-15T21:31:43.442Z,22.70
2018-09-15T21:34:12.374Z,22.69
2018-09-15T21:36:41.284Z,22.70
2018-09-15T21:39:12.468Z,22.69
2018-09-15T21:41:41.756Z,22.52
2018-09-15T21:44:10.708Z,22.43
2018-09-15T21:46:40.056Z,22.31
2018-09-15T21:49:09.080Z,22.39
2018-09-15T21:51:37.963Z,22.47
2018-09-15T21:54:06.892Z,22.32
2018-09-15T21:56:35.875Z,22.30
2018-09-15T21:59:04.852Z,22.25
2018-09-15T22:01:33.799Z,22.03
2018-09-15T22:04:07.862Z,22.04
2018-09-15T22:06:36.833Z,22.14
2018-09-15T22:09:08.403Z,22.17
2018-09-15T22:11:37.376Z,22.23
2018-09-15T22:14:06.311Z,22.41
2018-09-15T22:16:35.220Z,22.49
2018-09-15T22:19:04.153Z,22.49
2018-09-15T22:21:33.090Z,22.55
2018-09-15T22:24:02.028Z,22.52
2018-09-15T22:26:30.940Z,22.60
2018-09-15T22:28:59.889Z,22.51
2018-09-15T22:31:29.117Z,22.51
2018-09-15T22:33:58.645Z,22.58
2018-09-15T22:36:27.575Z,22.57
2018-09-15T22:38:56.496Z,22.57
2018-09-15T22:41:25.406Z,22.41
2018-09-15T22:43:54.286Z,21.71
2018-09-15T22:46:23.301Z,21.80
2018-09-15T22:48:52.200Z,21.99
2018-09-15T22:51:21.113Z,22.13
2018-09-15T22:53:49.991Z,22.23
2018-09-15T22:56:18.964Z,22.35
2018-09-15T22:58:47.903Z,22.38
2018-09-15T23:01:16.808Z,22.44
2018-09-15T23:03:45.737Z,22.44
2018-09-15T23:06:14.620Z,21.69
2018-09-15T23:08:43.523Z,21.88
2018-09-15T23:11:12.404Z,22.07
2018-09-15T23:13:41.360Z,21.89
2018-09-15T23:16:10.256Z,21.99
2018-09-15T23:18:39.143Z,22.04
2018-09-15T23:21:08.108Z,22.14
2018-09-15T23:23:37.004Z,22.24
2018-09-15T23:26:05.920Z,22.28
2018-09-15T23:28:34.808Z,22.35
2018-09-15T23:31:03.718Z,22.37
2018-09-15T23:33:32.603Z,22.41
2018-09-15T23:36:01.518Z,22.48
2018-09-15T23:38:30.435Z,22.44
2018-09-15T23:40:59.390Z,22.49
2018-09-15T23:43:28.272Z,22.52
2018-09-15T23:45:57.172Z,22.50
2018-09-15T23:48:26.108Z,22.51
2018-09-15T23:50:54.996Z,22.52
2018-09-15T23:53:23.891Z,22.55
2018-09-15T23:55:52.787Z,22.47
2018-09-15T23:58:21.696Z,22.20
